• Join FlightAware (Why Join?)
  • Login
  • US Flag 
01:02AM EDT


 

Airport Tracker/Info


-or-


 

Live Flight TrackerFlight Track Log ✈ C-FTOH ✈ 24-Apr-2013 ✈ CYOW - MUSC / SNU

Flight Track Log - Related Links

Times and Time Zones

All times are in EDT time to prevent confusion due to time zone crossing. See the C-FTOH flight status page for this flight to view local times or setup timezone preferences in your user account.

Time Position Orientation Groundspeed Altitude Reporting Facility
EDT Latitude Longitude Course Direction KTS MPH feet Rate Location/Type
11:25AM 44.6389 -75.8786 197° South  Level FlightAware Approximate
11:25AM 45.0570 -75.8350 197° South 336 387 12,500  Level FlightAware
11:26AM 44.5277 -75.9263 197° South  Level FlightAware Approximate
11:26AM 44.9990 -75.8590 196° South 357 411 14,500  Level FlightAware
11:26AM 44.9330 -75.8860 196° South 366 421 16,500 3,420 Climbing FlightAware
11:27AM 44.8550 -75.9190 197° South 369 425 19,700 3,900 Climbing FlightAware
11:28AM 44.7880 -75.9470 197° South 369 425 22,100 3,060 Climbing FlightAware
11:28AM 44.7220 -75.9740 196° South 383 441 23,800 2,220 Climbing FlightAware
11:29AM 44.6370 -75.9890 187° South 401 461 25,300 1,740 Climbing FlightAware
11:30AM 44.5620 -75.9970 184° South 423 487 26,300 1,200 Climbing FlightAware
11:31AM 44.4660 -76.0080 185° South 416 479 27,100 960 Climbing FlightAware
11:31AM 44.3870 -76.0170 185° South 422 486 27,800 1,800 Climbing FlightAware
11:32AM 44.3080 -76.0250 184° South 418 481 29,500 2,580 Climbing FlightAware
11:33AM 44.2230 -76.0350 185° South 403 464 31,500 2,220 Climbing FlightAware
11:33AM 44.1470 -76.0430 184° South 407 468 32,700 1,920 Climbing FlightAware
11:34AM 44.0710 -76.0520 185° South 406 467 34,100 1,920 Climbing FlightAware
11:35AM 43.9940 -76.0600 184° South 405 466 35,300 1,680 Climbing FlightAware
11:35AM 43.9150 -76.0720 186° South 409 471 36,500 1,560 Climbing FlightAware
11:36AM 43.8510 -76.0830 187° South 407 468 37,400 1,920 Climbing FlightAware
11:37AM 43.7550 -76.1000 187° South 391 450 39,300 1,620 Climbing FlightAware
11:38AM 43.6800 -76.1130 187° South 387 445 39,900 420 Climbing FlightAware
11:38AM 43.5820 -76.1300 187° South 411 473 40,000 60 Climbing FlightAware
11:39AM 43.5050 -76.1430 187° South 410 472 40,000  Level FlightAware
11:40AM 43.4220 -76.1590 188° South 407 468 40,000  Level FlightAware
11:41AM 43.3380 -76.1740 187° South 405 466 40,000  Level FlightAware
11:41AM 43.2670 -76.1860 187° South 406 467 40,000  Level FlightAware
11:42AM 43.1820 -76.2010 187° South 407 468 40,000  Level FlightAware
11:43AM 43.1070 -76.2160 188° South 403 464 40,000  Level FlightAware
11:43AM 43.0230 -76.2350 189° South 403 464 40,000  Level FlightAware
11:44AM 42.9500 -76.2510 189° South 408 470 40,000  Level FlightAware
11:45AM 42.8740 -76.2680 189° South 410 472 40,000  Level FlightAware
11:46AM 42.7920 -76.2860 189° South 410 472 40,000  Level FlightAware
11:46AM 42.7160 -76.3030 189° South 409 471 40,000  Level FlightAware
11:47AM 42.6300 -76.3220 189° South 412 474 40,000  Level FlightAware
11:48AM 42.5590 -76.3380 189° South 413 475 40,000  Level FlightAware
11:48AM 42.4800 -76.3550 189° South 415 478 40,000  Level FlightAware
11:49AM 42.3950 -76.3740 189° South 418 481 40,000  Level FlightAware
11:50AM 42.3190 -76.3900 189° South 419 482 40,000  Level FlightAware
11:50AM 42.2420 -76.4070 189° South 420 483 40,000  Level FlightAware
11:51AM 42.1580 -76.4260 190° South 420 483 40,000  Level FlightAware
11:52AM 42.0790 -76.4430 189° South 421 484 40,000  Level FlightAware
11:53AM 41.9930 -76.4610 189° South 421 484 40,000  Level FlightAware
11:53AM 41.9160 -76.4770 189° South 421 484 40,000  Level FlightAware
11:54AM 41.8310 -76.4960 189° South 423 487 40,000  Level FlightAware
11:54AM 41.7827 -76.5060 189° South 424 488 40,000  Level FlightAware ADS-B
11:55AM 41.7237 -76.5186 189° South 424 488 40,000  Level FlightAware ADS-B
11:55AM 41.6643 -76.5312 189° South 424 488 40,000  Level FlightAware ADS-B
11:56AM 41.6027 -76.5442 189° South 424 488 40,000  Level FlightAware ADS-B
11:56AM 41.5392 -76.5578 189° South 425 489 40,000  Level FlightAware ADS-B
11:57AM 41.4801 -76.5706 189° South 424 488 40,000  Level FlightAware ADS-B
11:57AM 41.4211 -76.5831 189° South 424 488 40,000  Level FlightAware ADS-B
11:58AM 41.3562 -76.5967 189° South 424 488 40,000  Level FlightAware ADS-B
11:58AM 41.2951 -76.6096 189° South 424 488 40,000  Level FlightAware ADS-B
11:59AM 41.2348 -76.6223 189° South 425 489 40,000  Level FlightAware ADS-B
11:59AM 41.1763 -76.6346 189° South 427 491 40,000  Level FlightAware ADS-B
12:00PM 41.1163 -76.6471 189° South 429 494 40,000  Level FlightAware ADS-B
12:00PM 41.0545 -76.6599 189° South 430 495 40,000  Level FlightAware ADS-B
12:01PM 40.9912 -76.6731 189° South 430 495 40,000  Level FlightAware ADS-B
12:02PM 40.9286 -76.6863 189° South 430 495 40,000  Level FlightAware ADS-B
12:02PM 40.8636 -76.6998 189° South 430 495 40,000  Level FlightAware ADS-B
12:03PM 40.7988 -76.7132 189° South 429 494 40,000  Level FlightAware ADS-B
12:03PM 40.7322 -76.7271 189° South 429 494 40,000  Level FlightAware ADS-B
12:04PM 40.6704 -76.7399 189° South 429 494 40,000  Level FlightAware ADS-B
12:04PM 40.6104 -76.7524 189° South 429 494 40,000  Level FlightAware ADS-B
12:05PM 40.5504 -76.7648 189° South 429 494 40,000  Level FlightAware ADS-B
12:05PM 40.4893 -76.7773 189° South 429 494 40,000  Level FlightAware ADS-B
12:06PM 40.4303 -76.7894 189° South 431 496 40,000  Level FlightAware ADS-B
12:06PM 40.3685 -76.8019 189° South 431 496 40,000  Level FlightAware ADS-B
12:07PM 40.3094 -76.8140 189° South 429 494 40,000  Level FlightAware ADS-B
12:07PM 40.2502 -76.8263 189° South 429 494 40,000  Level FlightAware ADS-B
12:08PM 40.1865 -76.8393 189° South 429 494 40,000  Level FlightAware ADS-B
12:08PM 40.1264 -76.8515 189° South 428 493 40,000  Level FlightAware ADS-B
12:09PM 40.0543 -76.8659 189° South 429 494 40,000  Level FlightAware ADS-B
12:09PM 39.9942 -76.8780 189° South 429 494 40,000  Level FlightAware ADS-B
12:10PM 39.9335 -76.8904 189° South 428 493 40,000  Level FlightAware ADS-B
12:11PM 39.8689 -76.9035 189° South 428 493 40,000  Level FlightAware ADS-B
12:11PM 39.8047 -76.9165 189° South 428 493 40,000  Level FlightAware ADS-B
12:12PM 39.7432 -76.9289 189° South 429 494 40,000  Level FlightAware ADS-B
12:12PM 39.6818 -76.9414 189° South 429 494 40,000  Level FlightAware ADS-B
12:13PM 39.6210 -76.9535 189° South 430 495 40,000  Level FlightAware ADS-B
12:13PM 39.5578 -76.9661 189° South 430 495 40,000  Level FlightAware ADS-B
12:13PM 39.5276 -76.9716 188° South 433 498 40,000  Level FlightAware ADS-B
12:14PM 39.5088 -76.9730 183° South 436 502 40,000  Level FlightAware ADS-B
12:14PM 39.4864 -76.9722 178° South 441 507 40,000  Level FlightAware ADS-B
12:14PM 39.4370 -76.9614 170° South 448 516 40,000  Level FlightAware ADS-B
12:15PM 39.3705 -76.9416 167° South 448 516 40,000  Level FlightAware ADS-B
12:15PM 39.3065 -76.9225 167° South 448 516 40,000  Level FlightAware ADS-B
12:16PM 39.2459 -76.9045 167° South 447 514 40,000  Level FlightAware ADS-B
12:16PM 39.1788 -76.8846 167° South 447 514 40,000  Level FlightAware ADS-B
12:17PM 39.1172 -76.8661 167° South 447 514 40,000  Level FlightAware ADS-B
12:17PM 39.0550 -76.8475 167° South 448 516 40,000  Level FlightAware ADS-B
12:18PM 38.9935 -76.8295 167° South 447 514 40,000  Level FlightAware ADS-B
12:18PM 38.9317 -76.8112 167° South 447 514 40,000  Level FlightAware ADS-B
12:19PM 38.8695 -76.7928 167° South 446 513 40,000  Level FlightAware ADS-B
12:19PM 38.8081 -76.7748 167° South 446 513 40,000  Level FlightAware ADS-B
12:20PM 38.7463 -76.7567 167° South 446 513 40,000  Level FlightAware ADS-B
12:20PM 38.7067 -76.7458 168° South 444 511 40,000  Level FlightAware ADS-B
12:20PM 38.6868 -76.7424 172° South 443 510 40,000  Level FlightAware ADS-B
12:21PM 38.6238 -76.7339 174° South 443 510 40,000  Level FlightAware ADS-B
12:21PM 38.5529 -76.7244 174° South 444 511 40,000  Level FlightAware ADS-B
12:22PM 38.4910 -76.7161 174° South 444 511 40,000  Level FlightAware ADS-B
12:23PM 38.4235 -76.7071 174° South 444 511 40,000  Level FlightAware ADS-B
12:24PM 38.3100 -76.6920 174° South 438 504 40,000  Level FlightAware
12:24PM 38.2300 -76.6810 174° South 438 504 40,000  Level FlightAware
12:25PM 38.1490 -76.6710 174° South 440 506 40,000  Level FlightAware
12:26PM 38.0430 -76.6570 174° South 440 506 40,000  Level FlightAware
12:28PM 37.7870 -76.6230 174° South 451 519 40,000  Level FlightAware
12:28PM 37.7190 -76.6140 174° South 451 519 40,000  Level FlightAware
12:29PM 37.6230 -76.6020 174° South 450 518 40,000  Level FlightAware
12:30PM 37.5450 -76.5920 174° South 450 518 40,000  Level FlightAware
12:31PM 37.4340 -76.6010 184° South 438 504 40,000  Level FlightAware
12:31PM 37.3720 -76.6180 192° South 438 504 40,000  Level FlightAware
12:32PM 37.2870 -76.6400 192° South 438 504 40,000  Level FlightAware
12:33PM 37.1830 -76.6790 197° South 438 504 40,000  Level FlightAware
12:34PM 37.0830 -76.7090 193° South 40,000  Level FlightAware
12:35PM 36.9720 -76.7430 194° South 430 495 40,000  Level FlightAware
12:35PM 36.8890 -76.7680 194° South 430 495 40,000  Level FlightAware
12:36PM 36.8130 -76.7920 194° South 430 495 40,000  Level FlightAware
12:37PM 36.7410 -76.8130 193° South 430 495 40,000  Level FlightAware
12:37PM 36.6590 -76.8390 194° South 430 495 40,000  Level FlightAware
12:38PM 36.5940 -76.8590 194° South 430 495 40,000  Level FlightAware
12:39PM 36.5280 -76.8800 194° South 430 495 40,000  Level FlightAware
12:39PM 36.4630 -76.9000 194° South 430 495 40,000  Level FlightAware
12:40PM 36.3970 -76.9200 194° South 430 495 40,000  Level FlightAware
12:41PM 36.3150 -76.9460 194° South 430 495 40,000  Level FlightAware
12:42PM 36.2490 -76.9660 194° South 430 495 40,000  Level FlightAware
12:42PM 36.1840 -76.9860 194° South 430 495 40,000  Level FlightAware
12:43PM 36.1180 -77.0070 194° South 430 495 40,000  Level FlightAware
12:44PM 36.0520 -77.0270 194° South 430 495 40,000  Level FlightAware
12:44PM 35.9700 -77.0520 194° South 430 495 40,000  Level FlightAware
12:45PM 35.7160 -77.1190 192° South 432 497 40,000  Level FlightAware
12:48PM 35.3680 -77.2210 193° South 432 497 40,000  Level FlightAware
12:49PM 35.2850 -77.2450 193° South 432 497 40,000  Level FlightAware
12:50PM 35.2190 -77.2640 193° South 432 497 40,000  Level FlightAware
12:50PM 35.1530 -77.2820 193° South 432 497 40,000  Level FlightAware
12:51PM 35.0870 -77.3010 193° South 432 497 40,000  Level FlightAware
12:52PM 35.0210 -77.3200 193° South 432 497 40,000  Level FlightAware
12:53PM 34.9380 -77.3430 193° South 432 497 40,000  Level FlightAware
12:53PM 34.8720 -77.3620 193° South 432 497 40,000  Level FlightAware
12:54PM 34.8050 -77.3800 192° South 432 497 40,000  Level FlightAware
12:55PM 34.7390 -77.3990 193° South 432 497 40,000  Level FlightAware
12:55PM 34.6730 -77.4170 193° South 432 497 40,000  Level FlightAware
12:56PM 34.6070 -77.4360 193° South 432 497 40,000  Level FlightAware
12:57PM 34.5240 -77.4590 193° South 432 497 40,000  Level FlightAware
12:57PM 34.4580 -77.4780 193° South 432 497 40,000  Level FlightAware
01:01PM 33.8070 -77.5750 187° South 438 504 40,000  Level FlightAware
01:03PM 33.5710 -77.6130 188° South 439 505 40,000  Level FlightAware
01:04PM 33.4870 -77.6260 187° South 441 507 40,000  Level FlightAware
01:05PM 33.4010 -77.6390 187° South 441 507 40,000  Level FlightAware
01:06PM 33.3320 -77.6490 187° South 441 507 40,000  Level FlightAware
01:06PM 33.2640 -77.6590 187° South 441 507 40,000  Level FlightAware
01:07PM 33.1950 -77.6690 187° South 441 507 40,000  Level FlightAware
01:08PM 33.1260 -77.6790 187° South 441 507 40,000  Level FlightAware
01:09PM 32.8370 -77.7290 188° South 448 516 40,000  Level FlightAware
01:10PM 32.7670 -77.7390 187° South 448 516 40,000  Level FlightAware
01:11PM 32.6970 -77.7490 187° South 448 516 40,000  Level FlightAware
01:12PM 32.5160 -77.7790 188° South 445 512 40,000  Level FlightAware
01:12PM 32.4460 -77.7900 188° South 444 511 40,000  Level FlightAware
01:13PM 32.3760 -77.8000 187° South 444 511 40,000  Level FlightAware
01:14PM 32.2900 -77.8120 187° South 444 511 40,000  Level FlightAware
01:15PM 32.2200 -77.8220 187° South 444 511 40,000  Level FlightAware
01:15PM 32.1510 -77.8330 188° South 444 511 40,000  Level FlightAware
01:16PM 32.0820 -77.8430 187° South 444 511 40,000  Level FlightAware
01:17PM 31.9064 -77.8711 187° South 444 511 40,000  Level Jacksonville Center
01:18PM 31.7817 -77.8878 186° South 444 511 40,000 -60 Level Jacksonville Center
01:19PM 31.6575 -77.9117 189° South 444 511 39,900 -60 Descending Jacksonville Center
01:20PM 31.5350 -77.9278 186° South 444 511 39,900  Level Jacksonville Center
01:21PM 31.4078 -77.9369 184° South 449 517 40,000  Climbing Jacksonville Center
01:22PM 31.2858 -77.9631 190° South 449 517 40,000  Level Jacksonville Center
01:23PM 31.1611 -77.9792 186° South 454 522 40,000  Level Jacksonville Center
01:24PM 31.0389 -78.0025 189° South 454 522 40,000  Level Jacksonville Center
01:25PM 30.9311 -78.0250 190° South 454 522 40,000  Level Jacksonville Center
01:26PM 30.8044 -78.0414 186° South 446 513 40,000  Level Jacksonville Center
01:27PM 30.6781 -78.0622 188° South 453 521 40,000  Level Jacksonville Center
01:28PM 30.5514 -78.0808 187° South 452 520 40,000 -60 Level Jacksonville Center
01:29PM 30.4353 -78.0986 188° South 452 520 39,900  Descending Jacksonville Center
01:31PM 30.1892 -78.1350 187° South 435 501 40,000  Climbing Miami Center
01:32PM 30.0703 -78.1528 187° South 441 507 40,000  Level Miami Center
01:33PM 29.9450 -78.1775 190° South 452 520 40,000  Level Miami Center
01:34PM 29.8278 -78.2025 190° South 443 510 40,000  Level Miami Center
01:35PM 29.7047 -78.2175 186° South 449 517 40,000  Level Miami Center
01:36PM 29.5794 -78.2328 186° South 450 518 40,000  Level Miami Center
01:37PM 29.4644 -78.2575 191° South 437 503 40,000  Level Miami Center
01:38PM 29.3369 -78.2725 186° South 445 512 40,000  Level Miami Center
01:39PM 29.2181 -78.2900 187° South 452 520 40,000  Level Miami Center
01:40PM 29.0967 -78.3100 188° South 447 514 40,000  Level Miami Center
01:41PM 28.9756 -78.3297 188° South 447 514 40,000  Level Miami Center
01:46PM 28.3280 -78.4280 188° South 442 509 40,000  Level FlightAware
01:47PM 28.2590 -78.4390 188° South 444 511 40,000  Level FlightAware
01:48PM 28.1210 -78.4600 188° South 40,000  Level FlightAware
01:49PM 28.0120 -78.4770 188° South 448 516 40,000  Level FlightAware
01:49PM 27.9290 -78.4890 187° South 448 516 40,000  Level FlightAware
01:50PM 27.8470 -78.5020 188° South 447 514 40,000  Level FlightAware
01:51PM 27.7620 -78.5140 187° South 447 514 40,000  Level FlightAware
01:51PM 27.6740 -78.5290 189° South 444 511 40,000  Level FlightAware
01:52PM 27.6020 -78.5390 187° South 444 511 40,000  Level FlightAware
01:53PM 27.4970 -78.5550 188° South 443 510 40,000  Level FlightAware
01:54PM 27.4050 -78.5700 188° South 444 511 40,000  Level FlightAware
01:54PM 27.3000 -78.5860 188° South 437 503 40,000  Level FlightAware
01:55PM 27.2160 -78.5980 187° South 436 502 40,000  Level FlightAware
01:56PM 27.1390 -78.6100 188° South 437 503 40,000  Level FlightAware
01:56PM 27.0450 -78.6240 188° South 437 503 40,000  Level FlightAware
01:57PM 26.9800 -78.6340 188° South 437 503 40,000  Level FlightAware
01:58PM 26.8680 -78.6510 188° South 444 511 40,000  Level FlightAware
01:59PM 26.7870 -78.6630 188° South 443 510 40,000  Level FlightAware
01:59PM 26.7040 -78.6760 188° South 442 509 40,000  Level FlightAware
02:00PM 26.6130 -78.6890 187° South 443 510 40,000  Level FlightAware
02:01PM 26.5340 -78.7010 188° South 443 510 40,000  Level FlightAware
02:01PM 26.4420 -78.7150 188° South 444 511 40,000  Level FlightAware
02:02PM 26.3630 -78.7260 187° South 444 511 40,000  Level FlightAware
02:03PM 26.2850 -78.7380 188° South 438 504 40,000  Level FlightAware
02:03PM 26.1860 -78.7530 188° South 446 513 40,000  Level FlightAware
02:04PM 26.1020 -78.7650 187° South 445 512 40,000  Level FlightAware
02:05PM 26.0240 -78.7770 188° South 445 512 40,000  Level FlightAware
02:06PM 25.9270 -78.7910 187° South 446 513 40,000  Level FlightAware
02:06PM 25.8580 -78.8010 187° South 446 513 40,000  Level FlightAware
02:07PM 25.7540 -78.8160 187° South 446 513 40,000  Level FlightAware
02:08PM 25.6740 -78.8280 188° South 446 513 40,000  Level FlightAware
02:08PM 25.5800 -78.8420 188° South 446 513 40,000  Level FlightAware
02:09PM 25.4960 -78.8540 187° South 445 512 40,000  Level FlightAware
02:10PM 25.4160 -78.8660 188° South 445 512 40,000  Level FlightAware
02:10PM 25.3290 -78.8780 187° South 445 512 40,000  Level FlightAware
02:11PM 25.2410 -78.8910 188° South 443 510 40,000  Level FlightAware
02:12PM 25.1760 -78.9000 187° South 443 510 40,000  Level FlightAware
02:13PM 25.0760 -78.9150 188° South 434 499 40,000  Level FlightAware
02:13PM 24.9930 -78.9270 187° South 441 507 40,000  Level FlightAware
02:14PM 24.9060 -78.9510 194° South 417 480 40,000  Level FlightAware
02:15PM 24.8320 -78.9820 201° Southwest 426 490 40,000  Level FlightAware
02:15PM 24.7640 -79.0100 201° Southwest 428 493 40,000  Level FlightAware
02:16PM 24.6750 -79.0450 200° South 432 497 40,000  Level FlightAware
02:17PM 24.5980 -79.0770 201° Southwest 433 498 40,000  Level FlightAware
02:17PM 24.5270 -79.1050 200° South 426 490 40,000  Level FlightAware
02:18PM 24.4640 -79.1300 200° South 426 490 40,000  Level FlightAware
02:19PM 24.4010 -79.1560 201° Southwest 426 490 40,000  Level FlightAware
02:19PM 24.3380 -79.1810 200° South 426 490 40,000  Level FlightAware
02:20PM 24.2750 -79.2060 200° South 426 490 40,000  Level FlightAware
02:21PM 24.2120 -79.2310 200° South 426 490 40,000  Level FlightAware
02:22PM 24.1340 -79.2620 200° South 426 490 40,000  Level FlightAware
02:22PM 24.0710 -79.2880 201° Southwest 426 490 40,000  Level FlightAware
02:23PM 24.0080 -79.3130 200° South 426 490 40,000  Level FlightAware
02:24PM 23.9450 -79.3380 200° South 426 490 40,000  Level FlightAware
02:24PM 23.8820 -79.3630 200° South 426 490 40,000  Level FlightAware
02:25PM 23.8190 -79.3880 200° South 426 490 40,000  Level FlightAware
02:26PM 23.7400 -79.4190 200° South 426 490 40,000  Level FlightAware
02:26PM 23.6770 -79.4440 200° South 426 490 40,000  Level FlightAware
02:30PM 23.3313 -79.5524 199° South  Level FlightAware Approximate
02:31PM 23.2226 -79.5925 197° South  Level FlightAware Approximate
02:32PM 23.1129 -79.6291 197° South  Level FlightAware Approximate
02:33PM 23.0033 -79.6657 197° South  Level FlightAware Approximate
02:34PM 22.8936 -79.7022 197° South  Level FlightAware Approximate
02:35PM 22.7884 -79.7509 207° Southwest  Level FlightAware Approximate
02:36PM 22.6869 -79.8087 212° Southwest  Level FlightAware Approximate
02:37PM 22.5891 -79.8721 205° Southwest  Level FlightAware Approximate
02:38PM 22.4879 -79.9306 209° Southwest  Level FlightAware Approximate
02:39PM 22.4833 -79.9333 209° Southwest  Level FlightAware Approximate
02:40PM 22.4922 -79.9436 209° Southwest  Level Estimated
02:41PM 22.4922 -79.9436 209° Southwest  Level Estimated
02:42PM 22.4922 -79.9436 209° Southwest  Level Estimated
02:43PM 22.4922 -79.9436 209° Southwest  Level Estimated
02:44PM 22.4922 -79.9436 209° Southwest  Level Estimated
02:45PM 22.4922 -79.9436 209° Southwest  Level Estimated
02:46PM 22.4922 -79.9436 209° Southwest  Level Estimated
02:47PM 22.4922 -79.9436 209° Southwest  Level Estimated
02:48PM 22.4922 -79.9436 209° Southwest  Level Estimated
02:49PM 22.4922 -79.9436 209° Southwest  Level Estimated
02:50PM 22.4922 -79.9436 209° Southwest  Level Estimated
02:51PM 22.4922 -79.9436 209° Southwest  Level Estimated
02:52PM 22.4922 -79.9436 209° Southwest  Level Estimated
02:53PM 22.4922 -79.9436 209° Southwest  Level Estimated